sensor_id;sensor_type;location;lat;lon;timestamp;temperature;humidity
72206;DHT22;60111;48.286;7.812;2023-08-07T00:01:50;13.40;77.00
72206;DHT22;60111;48.286;7.812;2023-08-07T00:04:23;13.30;77.10
72206;DHT22;60111;48.286;7.812;2023-08-07T00:06:55;13.20;77.40
72206;DHT22;60111;48.286;7.812;2023-08-07T00:09:28;13.20;78.10
72206;DHT22;60111;48.286;7.812;2023-08-07T00:12:00;13.10;78.40
72206;DHT22;60111;48.286;7.812;2023-08-07T00:14:33;13.00;79.20
72206;DHT22;60111;48.286;7.812;2023-08-07T00:17:06;13.00;80.00
72206;DHT22;60111;48.286;7.812;2023-08-07T00:19:40;12.90;80.10
72206;DHT22;60111;48.286;7.812;2023-08-07T00:22:12;12.80;79.90
72206;DHT22;60111;48.286;7.812;2023-08-07T00:24:45;12.90;79.90
72206;DHT22;60111;48.286;7.812;2023-08-07T00:27:17;12.90;79.70
72206;DHT22;60111;48.286;7.812;2023-08-07T00:29:50;12.90;79.90
72206;DHT22;60111;48.286;7.812;2023-08-07T00:32:23;12.90;80.10
72206;DHT22;60111;48.286;7.812;2023-08-07T00:34:55;12.80;80.40
72206;DHT22;60111;48.286;7.812;2023-08-07T00:37:28;12.80;80.70
72206;DHT22;60111;48.286;7.812;2023-08-07T00:40:00;12.90;80.40
72206;DHT22;60111;48.286;7.812;2023-08-07T00:42:33;12.90;80.40
72206;DHT22;60111;48.286;7.812;2023-08-07T00:45:06;12.90;80.80
72206;DHT22;60111;48.286;7.812;2023-08-07T00:47:39;12.80;80.90
72206;DHT22;60111;48.286;7.812;2023-08-07T00:50:12;12.90;81.10
72206;DHT22;60111;48.286;7.812;2023-08-07T00:52:45;12.90;80.30
72206;DHT22;60111;48.286;7.812;2023-08-07T00:55:18;12.90;79.20
72206;DHT22;60111;48.286;7.812;2023-08-07T00:57:51;13.00;78.50
72206;DHT22;60111;48.286;7.812;2023-08-07T01:00:26;13.00;78.30
72206;DHT22;60111;48.286;7.812;2023-08-07T01:02:59;13.00;77.60
72206;DHT22;60111;48.286;7.812;2023-08-07T01:05:33;13.00;76.50
72206;DHT22;60111;48.286;7.812;2023-08-07T01:08:06;13.00;76.40
72206;DHT22;60111;48.286;7.812;2023-08-07T01:11:03;13.00;76.80
72206;DHT22;60111;48.286;7.812;2023-08-07T01:13:35;13.00;76.80
72206;DHT22;60111;48.286;7.812;2023-08-07T01:16:10;13.00;75.90
72206;DHT22;60111;48.286;7.812;2023-08-07T01:18:43;13.00;75.90
72206;DHT22;60111;48.286;7.812;2023-08-07T01:21:18;12.90;76.20
72206;DHT22;60111;48.286;7.812;2023-08-07T01:23:51;12.90;76.40
72206;DHT22;60111;48.286;7.812;2023-08-07T01:26:24;12.80;77.10
72206;DHT22;60111;48.286;7.812;2023-08-07T01:29:20;12.80;77.80
72206;DHT22;60111;48.286;7.812;2023-08-07T01:31:53;12.70;78.30
72206;DHT22;60111;48.286;7.812;2023-08-07T01:34:26;12.70;78.10
72206;DHT22;60111;48.286;7.812;2023-08-07T01:37:00;12.60;78.10
72206;DHT22;60111;48.286;7.812;2023-08-07T01:39:34;12.70;77.80
72206;DHT22;60111;48.286;7.812;2023-08-07T01:42:07;12.60;77.90
72206;DHT22;60111;48.286;7.812;2023-08-07T01:44:39;12.60;78.10
72206;DHT22;60111;48.286;7.812;2023-08-07T01:47:12;12.50;78.30
72206;DHT22;60111;48.286;7.812;2023-08-07T01:49:45;12.50;78.60
72206;DHT22;60111;48.286;7.812;2023-08-07T01:52:17;12.50;79.00
72206;DHT22;60111;48.286;7.812;2023-08-07T01:54:50;12.40;79.60
72206;DHT22;60111;48.286;7.812;2023-08-07T01:57:22;12.40;79.80
72206;DHT22;60111;48.286;7.812;2023-08-07T01:59:55;12.30;80.00
72206;DHT22;60111;48.286;7.812;2023-08-07T02:02:28;12.30;79.60
72206;DHT22;60111;48.286;7.812;2023-08-07T02:05:00;12.30;80.40
72206;DHT22;60111;48.286;7.812;2023-08-07T02:07:33;12.20;80.30
72206;DHT22;60111;48.286;7.812;2023-08-07T02:10:06;12.20;79.60
72206;DHT22;60111;48.286;7.812;2023-08-07T02:12:38;12.20;79.50
72206;DHT22;60111;48.286;7.812;2023-08-07T02:15:11;12.30;79.60
72206;DHT22;60111;48.286;7.812;2023-08-07T02:17:43;12.30;80.00
72206;DHT22;60111;48.286;7.812;2023-08-07T02:20:16;12.40;79.50
72206;DHT22;60111;48.286;7.812;2023-08-07T02:22:49;12.30;79.80
72206;DHT22;60111;48.286;7.812;2023-08-07T02:25:21;12.40;79.70
72206;DHT22;60111;48.286;7.812;2023-08-07T02:27:55;12.30;79.90
72206;DHT22;60111;48.286;7.812;2023-08-07T02:30:27;12.30;80.30
72206;DHT22;60111;48.286;7.812;2023-08-07T02:33:00;12.30;80.40
72206;DHT22;60111;48.286;7.812;2023-08-07T02:35:32;12.30;80.60
72206;DHT22;60111;48.286;7.812;2023-08-07T02:38:05;12.30;80.70
72206;DHT22;60111;48.286;7.812;2023-08-07T02:40:38;12.30;80.40
72206;DHT22;60111;48.286;7.812;2023-08-07T02:43:10;12.30;80.50
72206;DHT22;60111;48.286;7.812;2023-08-07T02:45:43;12.30;80.60
72206;DHT22;60111;48.286;7.812;2023-08-07T02:48:15;12.30;81.00
72206;DHT22;60111;48.286;7.812;2023-08-07T02:50:49;12.30;81.80
72206;DHT22;60111;48.286;7.812;2023-08-07T02:53:23;12.30;81.20
72206;DHT22;60111;48.286;7.812;2023-08-07T02:55:55;12.30;81.10
72206;DHT22;60111;48.286;7.812;2023-08-07T02:58:28;12.30;81.50
72206;DHT22;60111;48.286;7.812;2023-08-07T03:01:04;12.30;81.60
72206;DHT22;60111;48.286;7.812;2023-08-07T03:03:38;12.40;81.20
72206;DHT22;60111;48.286;7.812;2023-08-07T03:06:11;12.30;81.60
72206;DHT22;60111;48.286;7.812;2023-08-07T03:08:43;12.40;81.60
72206;DHT22;60111;48.286;7.812;2023-08-07T03:11:16;12.40;81.30
72206;DHT22;60111;48.286;7.812;2023-08-07T03:13:48;12.30;81.80
72206;DHT22;60111;48.286;7.812;2023-08-07T03:16:21;12.30;82.80
72206;DHT22;60111;48.286;7.812;2023-08-07T03:18:53;12.30;83.10
72206;DHT22;60111;48.286;7.812;2023-08-07T03:21:26;12.40;83.00
72206;DHT22;60111;48.286;7.812;2023-08-07T03:23:59;12.40;81.90
72206;DHT22;60111;48.286;7.812;2023-08-07T03:26:31;12.40;81.90
72206;DHT22;60111;48.286;7.812;2023-08-07T03:29:04;12.40;81.90
72206;DHT22;60111;48.286;7.812;2023-08-07T03:31:36;12.40;81.90
72206;DHT22;60111;48.286;7.812;2023-08-07T03:34:09;12.40;82.10
72206;DHT22;60111;48.286;7.812;2023-08-07T03:36:41;12.40;81.60
72206;DHT22;60111;48.286;7.812;2023-08-07T03:39:14;12.40;81.40
72206;DHT22;60111;48.286;7.812;2023-08-07T03:41:47;12.40;80.80
72206;DHT22;60111;48.286;7.812;2023-08-07T03:44:19;12.50;80.40
72206;DHT22;60111;48.286;7.812;2023-08-07T03:46:52;12.40;81.40
72206;DHT22;60111;48.286;7.812;2023-08-07T03:49:26;12.50;81.50
72206;DHT22;60111;48.286;7.812;2023-08-07T03:51:59;12.40;81.50
72206;DHT22;60111;48.286;7.812;2023-08-07T03:54:31;12.50;82.00
72206;DHT22;60111;48.286;7.812;2023-08-07T03:57:04;12.50;81.20
72206;DHT22;60111;48.286;7.812;2023-08-07T03:59:37;12.50;80.30
72206;DHT22;60111;48.286;7.812;2023-08-07T04:02:09;12.50;80.40
72206;DHT22;60111;48.286;7.812;2023-08-07T04:04:42;12.60;79.40
72206;DHT22;60111;48.286;7.812;2023-08-07T04:07:14;12.70;79.40
72206;DHT22;60111;48.286;7.812;2023-08-07T04:09:47;12.70;79.70
72206;DHT22;60111;48.286;7.812;2023-08-07T04:12:19;12.60;79.70
72206;DHT22;60111;48.286;7.812;2023-08-07T04:14:52;12.60;80.20
72206;DHT22;60111;48.286;7.812;2023-08-07T04:17:25;12.60;80.50
72206;DHT22;60111;48.286;7.812;2023-08-07T04:19:58;12.60;80.80
72206;DHT22;60111;48.286;7.812;2023-08-07T04:22:30;12.60;79.90
72206;DHT22;60111;48.286;7.812;2023-08-07T04:25:03;12.60;80.10
72206;DHT22;60111;48.286;7.812;2023-08-07T04:27:36;12.60;80.50
72206;DHT22;60111;48.286;7.812;2023-08-07T04:30:10;12.60;80.40
72206;DHT22;60111;48.286;7.812;2023-08-07T04:32:43;12.60;81.20
72206;DHT22;60111;48.286;7.812;2023-08-07T04:35:16;12.60;81.90
72206;DHT22;60111;48.286;7.812;2023-08-07T04:37:48;12.50;81.90
72206;DHT22;60111;48.286;7.812;2023-08-07T04:40:21;12.50;82.50
72206;DHT22;60111;48.286;7.812;2023-08-07T04:42:54;12.60;82.40
72206;DHT22;60111;48.286;7.812;2023-08-07T04:45:45;12.60;82.00
72206;DHT22;60111;48.286;7.812;2023-08-07T04:48:18;12.50;82.80
72206;DHT22;60111;48.286;7.812;2023-08-07T04:50:52;12.50;83.10
72206;DHT22;60111;48.286;7.812;2023-08-07T04:53:25;12.50;82.60
72206;DHT22;60111;48.286;7.812;2023-08-07T04:55:59;12.50;82.80
72206;DHT22;60111;48.286;7.812;2023-08-07T04:58:32;12.50;82.90
72206;DHT22;60111;48.286;7.812;2023-08-07T05:01:05;12.40;83.50
72206;DHT22;60111;48.286;7.812;2023-08-07T05:03:38;12.40;83.70
72206;DHT22;60111;48.286;7.812;2023-08-07T05:06:11;12.50;83.60
72206;DHT22;60111;48.286;7.812;2023-08-07T05:09:02;12.40;83.50
72206;DHT22;60111;48.286;7.812;2023-08-07T05:11:35;12.40;83.80
72206;DHT22;60111;48.286;7.812;2023-08-07T05:14:08;12.50;83.70
72206;DHT22;60111;48.286;7.812;2023-08-07T05:16:40;12.50;83.90
72206;DHT22;60111;48.286;7.812;2023-08-07T05:19:13;12.50;83.80
72206;DHT22;60111;48.286;7.812;2023-08-07T05:21:45;12.60;83.50
72206;DHT22;60111;48.286;7.812;2023-08-07T05:24:20;12.60;83.60
72206;DHT22;60111;48.286;7.812;2023-08-07T05:26:52;12.70;83.10
72206;DHT22;60111;48.286;7.812;2023-08-07T05:29:25;12.70;83.20
72206;DHT22;60111;48.286;7.812;2023-08-07T05:31:58;12.70;82.90
72206;DHT22;60111;48.286;7.812;2023-08-07T05:34:30;12.70;82.70
72206;DHT22;60111;48.286;7.812;2023-08-07T05:37:03;12.80;82.40
72206;DHT22;60111;48.286;7.812;2023-08-07T05:39:36;12.80;82.80
72206;DHT22;60111;48.286;7.812;2023-08-07T05:42:09;12.90;83.30
72206;DHT22;60111;48.286;7.812;2023-08-07T05:44:41;12.90;82.90
72206;DHT22;60111;48.286;7.812;2023-08-07T05:47:14;12.90;83.40
72206;DHT22;60111;48.286;7.812;2023-08-07T05:49:46;13.00;83.00
72206;DHT22;60111;48.286;7.812;2023-08-07T05:52:19;13.20;82.60
72206;DHT22;60111;48.286;7.812;2023-08-07T05:54:52;13.10;83.00
72206;DHT22;60111;48.286;7.812;2023-08-07T05:57:25;13.10;83.10
72206;DHT22;60111;48.286;7.812;2023-08-07T05:59:57;13.20;82.90
72206;DHT22;60111;48.286;7.812;2023-08-07T06:02:30;13.20;83.20
72206;DHT22;60111;48.286;7.812;2023-08-07T06:05:03;13.20;83.60
72206;DHT22;60111;48.286;7.812;2023-08-07T06:07:35;13.30;83.50
72206;DHT22;60111;48.286;7.812;2023-08-07T06:10:08;13.30;82.70
72206;DHT22;60111;48.286;7.812;2023-08-07T06:12:41;13.40;81.30
72206;DHT22;60111;48.286;7.812;2023-08-07T06:15:13;13.40;80.90
72206;DHT22;60111;48.286;7.812;2023-08-07T06:17:46;13.40;80.60
72206;DHT22;60111;48.286;7.812;2023-08-07T06:20:18;13.50;80.50
72206;DHT22;60111;48.286;7.812;2023-08-07T06:22:52;13.60;81.40
72206;DHT22;60111;48.286;7.812;2023-08-07T06:25:24;13.60;81.50
72206;DHT22;60111;48.286;7.812;2023-08-07T06:27:57;13.50;81.80
72206;DHT22;60111;48.286;7.812;2023-08-07T06:30:31;13.60;81.60
72206;DHT22;60111;48.286;7.812;2023-08-07T06:33:03;13.60;81.80
72206;DHT22;60111;48.286;7.812;2023-08-07T06:35:38;13.60;82.00
72206;DHT22;60111;48.286;7.812;2023-08-07T06:38:30;13.70;81.80
72206;DHT22;60111;48.286;7.812;2023-08-07T06:41:04;13.70;82.00
72206;DHT22;60111;48.286;7.812;2023-08-07T06:43:36;13.80;81.10
72206;DHT22;60111;48.286;7.812;2023-08-07T06:46:09;13.80;81.10
72206;DHT22;60111;48.286;7.812;2023-08-07T06:48:43;13.80;80.70
72206;DHT22;60111;48.286;7.812;2023-08-07T06:51:15;13.80;80.60
72206;DHT22;60111;48.286;7.812;2023-08-07T06:53:48;13.80;81.00
72206;DHT22;60111;48.286;7.812;2023-08-07T06:56:21;13.80;81.20
72206;DHT22;60111;48.286;7.812;2023-08-07T06:58:53;13.90;80.30
72206;DHT22;60111;48.286;7.812;2023-08-07T07:01:26;13.90;79.90
72206;DHT22;60111;48.286;7.812;2023-08-07T07:03:58;14.00;80.80
72206;DHT22;60111;48.286;7.812;2023-08-07T07:06:31;14.00;80.90
72206;DHT22;60111;48.286;7.812;2023-08-07T07:09:04;14.00;80.50
72206;DHT22;60111;48.286;7.812;2023-08-07T07:11:36;14.10;81.10
72206;DHT22;60111;48.286;7.812;2023-08-07T07:14:09;14.20;80.90
72206;DHT22;60111;48.286;7.812;2023-08-07T07:16:42;14.20;80.00
72206;DHT22;60111;48.286;7.812;2023-08-07T07:19:15;14.30;80.00
72206;DHT22;60111;48.286;7.812;2023-08-07T07:21:48;14.30;79.80
72206;DHT22;60111;48.286;7.812;2023-08-07T07:24:20;14.40;78.80
72206;DHT22;60111;48.286;7.812;2023-08-07T07:26:53;14.50;78.90
72206;DHT22;60111;48.286;7.812;2023-08-07T07:29:26;14.50;78.30
72206;DHT22;60111;48.286;7.812;2023-08-07T07:31:58;14.50;74.80
72206;DHT22;60111;48.286;7.812;2023-08-07T07:34:31;14.50;74.30
72206;DHT22;60111;48.286;7.812;2023-08-07T07:37:05;14.60;73.10
72206;DHT22;60111;48.286;7.812;2023-08-07T07:39:37;14.70;74.00
72206;DHT22;60111;48.286;7.812;2023-08-07T07:42:10;14.70;74.20
72206;DHT22;60111;48.286;7.812;2023-08-07T07:44:42;14.80;73.80
72206;DHT22;60111;48.286;7.812;2023-08-07T07:47:34;14.90;73.30
72206;DHT22;60111;48.286;7.812;2023-08-07T07:50:08;15.00;73.00
72206;DHT22;60111;48.286;7.812;2023-08-07T07:52:41;15.00;73.80
72206;DHT22;60111;48.286;7.812;2023-08-07T07:55:14;15.00;72.80
72206;DHT22;60111;48.286;7.812;2023-08-07T07:57:47;15.00;74.80
72206;DHT22;60111;48.286;7.812;2023-08-07T08:00:20;15.00;76.30
72206;DHT22;60111;48.286;7.812;2023-08-07T08:02:54;15.00;76.40
72206;DHT22;60111;48.286;7.812;2023-08-07T08:05:26;15.10;74.80
72206;DHT22;60111;48.286;7.812;2023-08-07T08:07:59;15.20;72.70
72206;DHT22;60111;48.286;7.812;2023-08-07T08:10:31;15.20;71.40
72206;DHT22;60111;48.286;7.812;2023-08-07T08:13:04;15.30;71.50
72206;DHT22;60111;48.286;7.812;2023-08-07T08:15:36;15.20;71.60
72206;DHT22;60111;48.286;7.812;2023-08-07T08:18:09;15.20;71.60
72206;DHT22;60111;48.286;7.812;2023-08-07T08:20:42;15.30;71.90
72206;DHT22;60111;48.286;7.812;2023-08-07T08:23:14;15.50;71.70
72206;DHT22;60111;48.286;7.812;2023-08-07T08:25:48;15.70;71.60
72206;DHT22;60111;48.286;7.812;2023-08-07T08:28:21;15.80;71.00
72206;DHT22;60111;48.286;7.812;2023-08-07T08:30:54;15.80;70.20
72206;DHT22;60111;48.286;7.812;2023-08-07T08:33:26;15.70;69.90
72206;DHT22;60111;48.286;7.812;2023-08-07T08:35:59;15.70;70.10
72206;DHT22;60111;48.286;7.812;2023-08-07T08:38:32;15.60;69.60
72206;DHT22;60111;48.286;7.812;2023-08-07T08:41:07;15.60;70.60
72206;DHT22;60111;48.286;7.812;2023-08-07T08:43:41;15.60;70.30
72206;DHT22;60111;48.286;7.812;2023-08-07T08:46:16;15.70;70.70
72206;DHT22;60111;48.286;7.812;2023-08-07T08:48:56;15.80;72.10
72206;DHT22;60111;48.286;7.812;2023-08-07T08:51:24;16.10;70.50
72206;DHT22;60111;48.286;7.812;2023-08-07T08:53:57;16.30;70.00
72206;DHT22;60111;48.286;7.812;2023-08-07T08:56:33;16.50;67.50
72206;DHT22;60111;48.286;7.812;2023-08-07T08:59:06;16.30;67.90
72206;DHT22;60111;48.286;7.812;2023-08-07T09:01:39;16.30;67.60
72206;DHT22;60111;48.286;7.812;2023-08-07T09:04:12;16.40;65.70
72206;DHT22;60111;48.286;7.812;2023-08-07T09:06:44;16.30;66.10
72206;DHT22;60111;48.286;7.812;2023-08-07T09:09:20;16.50;64.20
72206;DHT22;60111;48.286;7.812;2023-08-07T09:11:55;16.70;66.50
72206;DHT22;60111;48.286;7.812;2023-08-07T09:14:30;16.90;64.90
72206;DHT22;60111;48.286;7.812;2023-08-07T09:17:05;16.90;63.60
72206;DHT22;60111;48.286;7.812;2023-08-07T09:19:38;16.80;61.00
72206;DHT22;60111;48.286;7.812;2023-08-07T09:22:11;16.80;61.30
72206;DHT22;60111;48.286;7.812;2023-08-07T09:24:44;16.80;62.30
72206;DHT22;60111;48.286;7.812;2023-08-07T09:27:17;16.60;60.90
72206;DHT22;60111;48.286;7.812;2023-08-07T09:29:49;16.60;63.10
72206;DHT22;60111;48.286;7.812;2023-08-07T09:32:22;16.60;61.80
72206;DHT22;60111;48.286;7.812;2023-08-07T09:34:56;16.70;62.30
72206;DHT22;60111;48.286;7.812;2023-08-07T09:37:29;16.70;62.70
72206;DHT22;60111;48.286;7.812;2023-08-07T09:40:02;16.90;63.00
72206;DHT22;60111;48.286;7.812;2023-08-07T09:42:36;17.20;62.30
72206;DHT22;60111;48.286;7.812;2023-08-07T09:45:28;17.40;61.60
72206;DHT22;60111;48.286;7.812;2023-08-07T09:48:04;17.40;61.10
72206;DHT22;60111;48.286;7.812;2023-08-07T09:50:42;17.40;61.70
72206;DHT22;60111;48.286;7.812;2023-08-07T09:53:14;17.50;60.90
72206;DHT22;60111;48.286;7.812;2023-08-07T09:55:47;17.50;60.60
72206;DHT22;60111;48.286;7.812;2023-08-07T09:58:20;17.50;60.40
72206;DHT22;60111;48.286;7.812;2023-08-07T10:00:53;17.50;60.80
72206;DHT22;60111;48.286;7.812;2023-08-07T10:03:27;17.50;58.10
72206;DHT22;60111;48.286;7.812;2023-08-07T10:06:00;17.80;58.50
72206;DHT22;60111;48.286;7.812;2023-08-07T10:08:34;18.10;55.50
72206;DHT22;60111;48.286;7.812;2023-08-07T10:11:08;18.20;53.70
72206;DHT22;60111;48.286;7.812;2023-08-07T10:13:42;18.10;52.50
72206;DHT22;60111;48.286;7.812;2023-08-07T10:16:15;18.00;54.00
72206;DHT22;60111;48.286;7.812;2023-08-07T10:18:48;17.90;53.40
72206;DHT22;60111;48.286;7.812;2023-08-07T10:21:22;17.70;54.50
72206;DHT22;60111;48.286;7.812;2023-08-07T10:23:56;17.70;53.60
72206;DHT22;60111;48.286;7.812;2023-08-07T10:26:29;17.60;54.50
72206;DHT22;60111;48.286;7.812;2023-08-07T10:29:04;17.60;52.90
72206;DHT22;60111;48.286;7.812;2023-08-07T10:31:40;17.60;53.30
72206;DHT22;60111;48.286;7.812;2023-08-07T10:34:14;17.70;52.80
72206;DHT22;60111;48.286;7.812;2023-08-07T10:36:47;17.70;53.70
72206;DHT22;60111;48.286;7.812;2023-08-07T10:39:19;17.70;53.30
72206;DHT22;60111;48.286;7.812;2023-08-07T10:41:53;17.70;54.90
72206;DHT22;60111;48.286;7.812;2023-08-07T10:44:31;17.60;54.40
72206;DHT22;60111;48.286;7.812;2023-08-07T10:47:06;17.50;53.90
72206;DHT22;60111;48.286;7.812;2023-08-07T10:49:40;17.60;52.80
72206;DHT22;60111;48.286;7.812;2023-08-07T10:52:12;17.60;56.20
72206;DHT22;60111;48.286;7.812;2023-08-07T10:54:49;17.70;53.90
72206;DHT22;60111;48.286;7.812;2023-08-07T10:57:22;17.80;55.00
72206;DHT22;60111;48.286;7.812;2023-08-07T11:00:02;17.90;52.70
72206;DHT22;60111;48.286;7.812;2023-08-07T11:02:41;17.90;54.40
72206;DHT22;60111;48.286;7.812;2023-08-07T11:05:14;17.90;52.30
72206;DHT22;60111;48.286;7.812;2023-08-07T11:07:47;17.90;53.70
72206;DHT22;60111;48.286;7.812;2023-08-07T11:10:19;17.90;52.90
72206;DHT22;60111;48.286;7.812;2023-08-07T11:12:52;17.90;53.10
72206;DHT22;60111;48.286;7.812;2023-08-07T11:15:25;17.80;55.30
72206;DHT22;60111;48.286;7.812;2023-08-07T11:17:58;18.00;55.20
72206;DHT22;60111;48.286;7.812;2023-08-07T11:20:31;18.40;52.20
72206;DHT22;60111;48.286;7.812;2023-08-07T11:23:05;18.80;52.90
72206;DHT22;60111;48.286;7.812;2023-08-07T11:25:38;18.90;52.50
72206;DHT22;60111;48.286;7.812;2023-08-07T11:28:10;19.00;52.40
72206;DHT22;60111;48.286;7.812;2023-08-07T11:30:43;19.20;51.00
72206;DHT22;60111;48.286;7.812;2023-08-07T11:33:18;19.10;50.10
72206;DHT22;60111;48.286;7.812;2023-08-07T11:35:51;19.10;51.00
72206;DHT22;60111;48.286;7.812;2023-08-07T11:38:34;19.10;50.60
72206;DHT22;60111;48.286;7.812;2023-08-07T11:41:07;19.00;50.80
72206;DHT22;60111;48.286;7.812;2023-08-07T11:43:40;19.20;51.90
72206;DHT22;60111;48.286;7.812;2023-08-07T11:46:15;19.60;51.70
72206;DHT22;60111;48.286;7.812;2023-08-07T11:48:48;19.90;49.90
72206;DHT22;60111;48.286;7.812;2023-08-07T11:51:20;20.00;50.00
72206;DHT22;60111;48.286;7.812;2023-08-07T11:53:53;20.10;49.90
72206;DHT22;60111;48.286;7.812;2023-08-07T11:56:28;20.20;47.30
72206;DHT22;60111;48.286;7.812;2023-08-07T11:59:02;20.50;47.50
72206;DHT22;60111;48.286;7.812;2023-08-07T12:01:37;20.50;46.80
72206;DHT22;60111;48.286;7.812;2023-08-07T12:04:11;20.50;48.30
72206;DHT22;60111;48.286;7.812;2023-08-07T12:06:54;20.40;47.40
72206;DHT22;60111;48.286;7.812;2023-08-07T12:09:28;20.40;49.10
72206;DHT22;60111;48.286;7.812;2023-08-07T12:12:02;20.40;49.10
72206;DHT22;60111;48.286;7.812;2023-08-07T12:14:35;20.20;48.00
72206;DHT22;60111;48.286;7.812;2023-08-07T12:17:09;20.10;49.00
72206;DHT22;60111;48.286;7.812;2023-08-07T12:19:42;19.90;47.10
72206;DHT22;60111;48.286;7.812;2023-08-07T12:22:18;19.70;48.50
72206;DHT22;60111;48.286;7.812;2023-08-07T12:24:49;19.50;48.50
72206;DHT22;60111;48.286;7.812;2023-08-07T12:27:22;19.50;49.30
72206;DHT22;60111;48.286;7.812;2023-08-07T12:29:55;19.50;50.50
72206;DHT22;60111;48.286;7.812;2023-08-07T12:32:27;19.60;51.00
72206;DHT22;60111;48.286;7.812;2023-08-07T12:35:00;19.70;49.50
72206;DHT22;60111;48.286;7.812;2023-08-07T12:37:33;19.80;51.10
72206;DHT22;60111;48.286;7.812;2023-08-07T12:40:06;19.80;50.10
72206;DHT22;60111;48.286;7.812;2023-08-07T12:42:38;19.80;51.30
72206;DHT22;60111;48.286;7.812;2023-08-07T12:45:11;20.00;49.40
72206;DHT22;60111;48.286;7.812;2023-08-07T12:47:44;20.20;49.00
72206;DHT22;60111;48.286;7.812;2023-08-07T12:50:17;20.20;48.70
72206;DHT22;60111;48.286;7.812;2023-08-07T12:52:49;20.30;48.70
72206;DHT22;60111;48.286;7.812;2023-08-07T12:55:22;20.40;48.20
72206;DHT22;60111;48.286;7.812;2023-08-07T12:57:55;20.40;49.00
72206;DHT22;60111;48.286;7.812;2023-08-07T13:00:27;20.40;49.40
72206;DHT22;60111;48.286;7.812;2023-08-07T13:03:00;20.50;49.80
72206;DHT22;60111;48.286;7.812;2023-08-07T13:05:33;20.40;47.40
72206;DHT22;60111;48.286;7.812;2023-08-07T13:08:05;20.30;48.50
72206;DHT22;60111;48.286;7.812;2023-08-07T13:10:38;20.20;47.70
72206;DHT22;60111;48.286;7.812;2023-08-07T13:13:11;19.90;50.60
72206;DHT22;60111;48.286;7.812;2023-08-07T13:15:43;19.90;49.30
72206;DHT22;60111;48.286;7.812;2023-08-07T13:18:16;19.90;49.90
72206;DHT22;60111;48.286;7.812;2023-08-07T13:20:48;19.90;50.30
72206;DHT22;60111;48.286;7.812;2023-08-07T13:23:21;20.00;49.60
72206;DHT22;60111;48.286;7.812;2023-08-07T13:25:53;20.00;49.50
72206;DHT22;60111;48.286;7.812;2023-08-07T13:28:27;19.90;47.90
72206;DHT22;60111;48.286;7.812;2023-08-07T13:31:00;19.90;47.10
72206;DHT22;60111;48.286;7.812;2023-08-07T13:33:33;19.80;47.70
72206;DHT22;60111;48.286;7.812;2023-08-07T13:36:05;19.90;48.60
72206;DHT22;60111;48.286;7.812;2023-08-07T13:38:38;20.30;48.20
72206;DHT22;60111;48.286;7.812;2023-08-07T13:41:11;20.50;47.60
72206;DHT22;60111;48.286;7.812;2023-08-07T13:43:43;20.70;47.90
72206;DHT22;60111;48.286;7.812;2023-08-07T13:46:16;21.10;47.90
72206;DHT22;60111;48.286;7.812;2023-08-07T13:48:50;21.30;50.70
72206;DHT22;60111;48.286;7.812;2023-08-07T13:51:22;21.50;46.50
72206;DHT22;60111;48.286;7.812;2023-08-07T13:53:55;21.20;46.30
72206;DHT22;60111;48.286;7.812;2023-08-07T13:56:27;21.10;46.70
72206;DHT22;60111;48.286;7.812;2023-08-07T13:59:01;20.90;47.90
72206;DHT22;60111;48.286;7.812;2023-08-07T14:01:33;20.80;45.60
72206;DHT22;60111;48.286;7.812;2023-08-07T14:04:06;20.80;49.80
72206;DHT22;60111;48.286;7.812;2023-08-07T14:06:39;20.80;47.50
72206;DHT22;60111;48.286;7.812;2023-08-07T14:09:14;20.80;48.40
72206;DHT22;60111;48.286;7.812;2023-08-07T14:11:46;20.80;47.50
72206;DHT22;60111;48.286;7.812;2023-08-07T14:14:19;20.60;46.90
72206;DHT22;60111;48.286;7.812;2023-08-07T14:16:51;20.40;47.30
72206;DHT22;60111;48.286;7.812;2023-08-07T14:19:26;20.30;48.60
72206;DHT22;60111;48.286;7.812;2023-08-07T14:21:58;20.10;48.20
72206;DHT22;60111;48.286;7.812;2023-08-07T14:24:31;20.10;49.20
72206;DHT22;60111;48.286;7.812;2023-08-07T14:27:04;20.10;47.40
72206;DHT22;60111;48.286;7.812;2023-08-07T14:29:36;20.20;48.90
72206;DHT22;60111;48.286;7.812;2023-08-07T14:32:09;20.40;49.30
72206;DHT22;60111;48.286;7.812;2023-08-07T14:34:41;20.50;46.30
72206;DHT22;60111;48.286;7.812;2023-08-07T14:37:14;20.60;46.80
72206;DHT22;60111;48.286;7.812;2023-08-07T14:39:47;20.50;46.30
72206;DHT22;60111;48.286;7.812;2023-08-07T14:42:19;20.30;46.80
72206;DHT22;60111;48.286;7.812;2023-08-07T14:44:52;20.20;47.10
72206;DHT22;60111;48.286;7.812;2023-08-07T14:47:25;20.20;46.90
72206;DHT22;60111;48.286;7.812;2023-08-07T14:49:57;20.10;46.30
72206;DHT22;60111;48.286;7.812;2023-08-07T14:52:31;20.20;47.40
72206;DHT22;60111;48.286;7.812;2023-08-07T14:55:04;20.10;47.00
72206;DHT22;60111;48.286;7.812;2023-08-07T14:57:36;20.10;47.70
72206;DHT22;60111;48.286;7.812;2023-08-07T15:00:10;20.10;46.60
72206;DHT22;60111;48.286;7.812;2023-08-07T15:02:42;20.00;47.60
72206;DHT22;60111;48.286;7.812;2023-08-07T15:05:15;20.00;48.50
72206;DHT22;60111;48.286;7.812;2023-08-07T15:07:47;20.00;47.80
72206;DHT22;60111;48.286;7.812;2023-08-07T15:10:20;20.00;48.30
72206;DHT22;60111;48.286;7.812;2023-08-07T15:12:53;20.10;49.10
72206;DHT22;60111;48.286;7.812;2023-08-07T15:15:27;20.20;49.00
72206;DHT22;60111;48.286;7.812;2023-08-07T15:17:59;20.20;48.30
72206;DHT22;60111;48.286;7.812;2023-08-07T15:23:28;20.20;49.10
72206;DHT22;60111;48.286;7.812;2023-08-07T15:26:01;20.50;47.90
72206;DHT22;60111;48.286;7.812;2023-08-07T15:28:33;20.60;46.00
72206;DHT22;60111;48.286;7.812;2023-08-07T15:31:06;20.40;46.00
72206;DHT22;60111;48.286;7.812;2023-08-07T15:33:39;20.40;48.70
72206;DHT22;60111;48.286;7.812;2023-08-07T15:36:11;20.70;47.40
72206;DHT22;60111;48.286;7.812;2023-08-07T15:38:44;21.10;48.40
72206;DHT22;60111;48.286;7.812;2023-08-07T15:41:17;21.50;45.40
72206;DHT22;60111;48.286;7.812;2023-08-07T15:43:49;21.60;44.90
72206;DHT22;60111;48.286;7.812;2023-08-07T15:46:22;21.70;44.70
72206;DHT22;60111;48.286;7.812;2023-08-07T15:48:54;21.70;47.10
72206;DHT22;60111;48.286;7.812;2023-08-07T15:51:27;21.90;45.10
72206;DHT22;60111;48.286;7.812;2023-08-07T15:54:00;22.00;45.10
72206;DHT22;60111;48.286;7.812;2023-08-07T15:56:33;22.00;44.00
72206;DHT22;60111;48.286;7.812;2023-08-07T15:59:06;21.80;43.70
72206;DHT22;60111;48.286;7.812;2023-08-07T16:01:39;21.80;44.20
72206;DHT22;60111;48.286;7.812;2023-08-07T16:04:11;22.00;42.60
72206;DHT22;60111;48.286;7.812;2023-08-07T16:06:44;21.90;43.50
72206;DHT22;60111;48.286;7.812;2023-08-07T16:09:18;21.90;43.30
72206;DHT22;60111;48.286;7.812;2023-08-07T16:11:51;21.90;43.70